Time;durP1;ratioP1;P1;durP2;ratioP2;P2;SDS_P1;SDS_P2;PMS_P1;PMS_P2;Temp;Humidity;BMP_temperature;BMP_pressure;BME280_temperature;BME280_humidity;BME280_pressure;Samples;Min_cycle;Max_cycle;Signal;HPM_P1;HPM_P2
2023/11/13 00:02:25;;;;;;;4.53;2.87;;;4.30;5.00;;;;;;5076194;28;20210;-83
2023/11/13 00:04:54;;;;;;;6.80;3.37;;;4.20;99.90;;;;;;5075613;28;20191;-84
2023/11/13 00:07:21;;;;;;;5.57;3.30;;;4.20;99.90;;;;;;5075384;28;20732;-82
2023/11/13 00:09:49;;;;;;;3.83;3.03;;;4.40;99.90;;;;;;5075890;28;20232;-84
2023/11/13 00:12:16;;;;;;;2.87;2.63;;;4.30;91.30;;;;;;5075750;28;20221;-82
2023/11/13 00:14:43;;;;;;;5.20;3.10;;;4.10;56.40;;;;;;5079052;28;20208;-82
2023/11/13 00:17:10;;;;;;;6.47;2.93;;;4.00;99.90;;;;;;5078584;28;20316;-82
2023/11/13 00:19:37;;;;;;;4.30;3.30;;;3.90;99.90;;;;;;5078490;28;20221;-84
2023/11/13 00:22:06;;;;;;;4.10;3.07;;;3.90;1.00;;;;;;5079228;28;20202;-82
2023/11/13 00:24:33;;;;;;;8.60;3.80;;;3.80;1.00;;;;;;5079424;28;20201;-82
2023/11/13 00:27:00;;;;;;;6.40;2.97;;;3.70;1.00;;;;;;5074888;28;20284;-84
2023/11/13 00:29:27;;;;;;;4.87;3.17;;;3.60;1.00;;;;;;5079283;28;20595;-84
2023/11/13 00:31:53;;;;;;;4.20;2.80;;;3.50;1.00;;;;;;5072833;28;20716;-82
2023/11/13 00:34:20;;;;;;;4.37;3.00;;;3.40;1.00;;;;;;5056633;28;20197;-83
2023/11/13 00:36:50;;;;;;;5.00;2.70;;;3.40;1.00;;;;;;5058222;28;20250;-83
2023/11/13 00:39:19;;;;;;;4.13;2.93;;;3.30;1.00;;;;;;5059014;28;20249;-81
2023/11/13 00:41:46;;;;;;;4.60;3.57;;;3.30;99.90;;;;;;5058573;28;20579;-82
2023/11/13 00:44:13;;;;;;;4.70;3.07;;;3.20;99.90;;;;;;5071348;28;20222;-84
2023/11/13 00:46:39;;;;;;;4.83;3.20;;;3.20;99.90;;;;;;5078912;28;20249;-82
2023/11/13 00:49:06;;;;;;;4.73;3.13;;;3.20;99.90;;;;;;5076242;28;20202;-82
2023/11/13 00:51:33;;;;;;;4.37;2.77;;;3.10;1.00;;;;;;5071837;28;20213;-83
2023/11/13 00:54:00;;;;;;;4.30;3.03;;;3.00;1.00;;;;;;5076266;28;20284;-83
2023/11/13 00:56:28;;;;;;;3.90;3.20;;;3.00;1.00;;;;;;5078466;28;20233;-82
2023/11/13 00:58:55;;;;;;;4.00;2.77;;;3.00;1.00;;;;;;5071465;28;20393;-85
2023/11/13 01:01:22;;;;;;;5.30;2.80;;;2.90;1.00;;;;;;5057802;28;20210;-81
2023/11/13 01:03:48;;;;;;;7.67;3.13;;;3.10;1.00;;;;;;5057045;28;20245;-84
2023/11/13 01:06:16;;;;;;;5.50;2.80;;;3.10;1.00;;;;;;5057824;28;20283;-82
2023/11/13 01:08:43;;;;;;;7.10;3.27;;;3.10;99.90;;;;;;5057680;28;20203;-83
2023/11/13 01:11:10;;;;;;;6.23;3.73;;;2.90;1.00;;;;;;5075062;28;20603;-81
2023/11/13 01:13:39;;;;;;;6.73;3.70;;;2.90;99.90;;;;;;5074907;28;20249;-83
2023/11/13 01:16:06;;;;;;;5.37;3.00;;;2.80;99.90;;;;;;5069975;28;20223;-85
2023/11/13 01:18:33;;;;;;;3.70;2.97;;;2.80;1.00;;;;;;5081837;28;20704;-81
2023/11/13 01:21:00;;;;;;;7.47;3.33;;;2.80;1.00;;;;;;5082543;28;20202;-81
2023/11/13 01:23:27;;;;;;;4.93;3.50;;;2.70;99.90;;;;;;5082723;28;20680;-82
2023/11/13 01:25:54;;;;;;;4.80;3.93;;;2.80;1.00;;;;;;5082133;28;20697;-80
2023/11/13 01:28:21;;;;;;;5.13;3.80;;;2.80;1.00;;;;;;5082394;28;20209;-81
2023/11/13 01:30:49;;;;;;;6.00;3.50;;;2.80;1.00;;;;;;5081654;28;20225;-83
2023/11/13 01:33:16;;;;;;;6.53;3.60;;;2.80;1.00;;;;;;5084386;28;20561;-83
2023/11/13 01:35:43;;;;;;;5.63;3.30;;;2.80;66.30;;;;;;5081396;28;20206;-83
2023/11/13 01:38:10;;;;;;;5.20;3.03;;;2.70;1.00;;;;;;5081080;28;20218;-81
2023/11/13 01:40:41;;;;;;;5.50;3.60;;;2.70;98.20;;;;;;5080907;28;20194;-81
2023/11/13 01:43:18;;;;;;;7.50;3.47;;;2.70;99.90;;;;;;5079981;28;20194;-82
2023/11/13 01:45:45;;;;;;;5.87;3.80;;;2.70;99.90;;;;;;5075409;28;20670;-81
2023/11/13 01:48:15;;;;;;;7.63;4.13;;;2.80;1.00;;;;;;5076257;28;20194;-79
2023/11/13 01:50:42;;;;;;;4.50;3.40;;;2.80;1.00;;;;;;5068212;28;20208;-83
2023/11/13 01:53:10;;;;;;;7.20;4.10;;;2.80;99.90;;;;;;5061198;28;20234;-82
2023/11/13 01:55:38;;;;;;;7.63;3.73;;;2.80;1.00;;;;;;5064963;28;20202;-81
2023/11/13 01:58:05;;;;;;;8.40;3.93;;;2.90;1.00;;;;;;5062402;28;20694;-83
2023/11/13 02:00:32;;;;;;;7.03;3.57;;;2.90;1.00;;;;;;5060984;28;20206;-82
2023/11/13 02:03:00;;;;;;;6.47;3.70;;;3.20;1.00;;;;;;5072907;28;20221;-80
2023/11/13 02:05:29;;;;;;;6.17;3.83;;;3.20;12.20;;;;;;5081517;28;20201;-81
2023/11/13 02:07:56;;;;;;;7.33;4.07;;;3.30;99.90;;;;;;5081443;28;20198;-80
2023/11/13 02:10:26;;;;;;;5.57;3.40;;;3.20;1.00;;;;;;5081158;28;20221;-81
2023/11/13 02:12:53;;;;;;;8.83;3.87;;;3.20;1.00;;;;;;5081991;28;20231;-81
2023/11/13 02:15:20;;;;;;;5.80;3.50;;;3.20;1.00;;;;;;5060612;28;20605;-81
2023/11/13 02:17:59;;;;;;;7.10;3.60;;;3.40;1.00;;;;;;5060821;28;20318;-82
2023/11/13 02:20:28;;;;;;;5.10;3.07;;;3.20;99.90;;;;;;5060840;28;20218;-81
2023/11/13 02:22:54;;;;;;;5.40;3.67;;;3.10;1.00;;;;;;5061166;28;20294;-80
2023/11/13 02:25:25;;;;;;;6.03;4.27;;;3.00;1.00;;;;;;5070861;28;20264;-80
2023/11/13 02:27:53;;;;;;;7.33;3.87;;;3.00;1.00;;;;;;5077408;28;20280;-79
2023/11/13 02:30:20;;;;;;;5.53;3.93;;;2.80;1.00;;;;;;5077883;28;20238;-81
2023/11/13 02:32:48;;;;;;;5.47;3.60;;;2.80;99.90;;;;;;5077075;28;20202;-83
2023/11/13 02:35:15;;;;;;;6.10;4.13;;;2.90;99.90;;;;;;5061276;28;20215;-83
2023/11/13 02:37:42;;;;;;;8.60;3.63;;;2.90;99.90;;;;;;5076614;28;20288;-81
2023/11/13 02:40:11;;;;;;;6.50;3.70;;;2.80;99.90;;;;;;5077282;28;20701;-82
2023/11/13 02:42:40;;;;;;;5.83;3.70;;;3.00;1.00;;;;;;5078883;28;20214;-83
2023/11/13 02:45:08;;;;;;;6.37;3.47;;;3.00;1.00;;;;;;5076524;28;20197;-81
2023/11/13 02:47:35;;;;;;;9.40;4.20;;;2.90;1.00;;;;;;5070347;28;20221;-82
2023/11/13 02:50:03;;;;;;;5.97;3.60;;;2.80;1.00;;;;;;5080859;28;20253;-80
2023/11/13 02:52:30;;;;;;;7.13;4.50;;;3.00;1.00;;;;;;5077967;28;20202;-80
2023/11/13 02:54:56;;;;;;;7.40;4.00;;;3.10;1.00;;;;;;5078903;28;20239;-81
2023/11/13 02:57:23;;;;;;;7.30;4.33;;;3.30;1.00;;;;;;5079266;28;20307;-80
2023/11/13 02:59:51;;;;;;;8.20;4.50;;;3.30;99.90;;;;;;5080198;28;20284;-81
2023/11/13 03:02:18;;;;;;;8.37;4.47;;;3.30;38.20;;;;;;5071563;28;20199;-81
2023/11/13 03:04:45;;;;;;;7.07;4.20;;;3.40;16.60;;;;;;5073229;28;20203;-80
2023/11/13 03:07:12;;;;;;;6.73;4.17;;;3.40;1.00;;;;;;5079772;28;20742;-81
2023/11/13 03:09:39;;;;;;;9.80;5.23;;;3.50;99.90;;;;;;5067313;28;20203;-81
2023/11/13 03:12:06;;;;;;;6.60;4.40;;;3.40;1.00;;;;;;5076261;28;20293;-81
2023/11/13 03:14:33;;;;;;;5.33;4.03;;;3.30;1.00;;;;;;5089371;28;20206;-82
2023/11/13 03:17:02;;;;;;;7.20;4.03;;;3.30;1.00;;;;;;5075872;28;20227;-80
2023/11/13 03:19:28;;;;;;;6.87;4.00;;;3.20;1.00;;;;;;5069646;28;20226;-80
2023/11/13 03:21:55;;;;;;;6.77;3.83;;;3.10;1.00;;;;;;5065472;28;20199;-80
2023/11/13 03:24:22;;;;;;;7.93;4.20;;;3.00;49.90;;;;;;5076919;28;20348;-83
2023/11/13 03:26:49;;;;;;;9.83;3.83;;;3.00;99.90;;;;;;5074299;28;20601;-82
2023/11/13 03:29:16;;;;;;;8.13;4.13;;;3.10;1.00;;;;;;5077433;28;20226;-81
2023/11/13 03:31:42;;;;;;;9.40;4.60;;;3.20;1.00;;;;;;5078609;28;20198;-80
2023/11/13 03:34:11;;;;;;;10.00;4.63;;;3.40;1.00;;;;;;5078205;28;20218;-80
2023/11/13 03:36:37;;;;;;;10.33;4.93;;;3.60;99.90;;;;;;5078651;28;20284;-82
2023/11/13 03:39:05;;;;;;;8.00;4.20;;;3.60;99.90;;;;;;5078407;28;20671;-79
2023/11/13 03:41:32;;;;;;;7.20;4.87;;;3.60;1.00;;;;;;5058149;28;20707;-82
2023/11/13 03:44:00;;;;;;;8.03;3.97;;;3.70;1.00;;;;;;5072605;28;20256;-82
2023/11/13 03:46:27;;;;;;;10.77;4.90;;;3.70;1.00;;;;;;5067445;28;20737;-79
2023/11/13 03:48:54;;;;;;;9.63;4.77;;;3.50;99.90;;;;;;5059553;28;20203;-81
2023/11/13 03:51:23;;;;;;;7.67;4.60;;;3.60;99.90;;;;;;5077743;28;20293;-79
2023/11/13 03:53:50;;;;;;;6.30;4.00;;;3.60;95.90;;;;;;5073185;28;20211;-79
2023/11/13 03:56:18;;;;;;;9.00;4.20;;;3.60;71.60;;;;;;5079566;28;20693;-82
2023/11/13 03:58:45;;;;;;;7.23;3.60;;;3.60;1.00;;;;;;5079467;28;20221;-80
2023/11/13 04:01:12;;;;;;;7.87;4.63;;;3.60;1.00;;;;;;5080442;28;20265;-81
2023/11/13 04:03:39;;;;;;;6.87;4.00;;;3.60;99.90;;;;;;5080431;28;20225;-80
2023/11/13 04:06:06;;;;;;;11.63;6.37;;;3.50;1.00;;;;;;5079183;28;20344;-80
2023/11/13 04:08:35;;;;;;;6.57;3.70;;;3.40;1.00;;;;;;5078816;28;20202;-81
2023/11/13 04:11:04;;;;;;;7.13;4.07;;;3.40;16.40;;;;;;5063483;28;20218;-81
2023/11/13 04:13:32;;;;;;;6.67;3.63;;;3.40;99.90;;;;;;5086980;28;20229;-82
2023/11/13 04:16:00;;;;;;;7.67;4.27;;;3.30;1.00;;;;;;5078338;28;20686;-81
2023/11/13 04:18:28;;;;;;;7.20;3.87;;;3.30;99.90;;;;;;5083466;28;20353;-81
2023/11/13 04:20:55;;;;;;;6.97;3.63;;;3.30;99.90;;;;;;5077476;28;20294;-81
2023/11/13 04:23:21;;;;;;;9.60;3.90;;;3.20;99.90;;;;;;5075932;28;20293;-81
2023/11/13 04:25:50;;;;;;;7.40;4.20;;;3.20;99.90;;;;;;5076292;28;20576;-81
2023/11/13 04:28:18;;;;;;;8.97;3.83;;;3.30;99.90;;;;;;5069382;28;20202;-80
2023/11/13 04:30:44;;;;;;;7.60;4.77;;;3.20;99.90;;;;;;5075535;28;20213;-82
2023/11/13 04:33:11;;;;;;;5.97;3.53;;;3.10;99.90;;;;;;5077351;28;20209;-81
2023/11/13 04:35:38;;;;;;;11.00;4.37;;;3.20;1.00;;;;;;5077428;28;20206;-81
2023/11/13 04:38:05;;;;;;;8.73;3.90;;;3.10;1.00;;;;;;5077132;28;20553;-82
2023/11/13 04:40:32;;;;;;;8.93;4.30;;;3.10;1.00;;;;;;5076097;28;20232;-83
2023/11/13 04:43:01;;;;;;;9.30;4.30;;;3.10;98.70;;;;;;5077270;28;20214;-82
2023/11/13 04:45:28;;;;;;;7.40;4.83;;;3.20;1.00;;;;;;5077146;28;20217;-83
2023/11/13 04:47:55;;;;;;;5.80;3.50;;;3.30;1.00;;;;;;5080208;28;20222;-81
2023/11/13 04:50:22;;;;;;;9.07;4.37;;;3.10;99.90;;;;;;5079888;28;20242;-82
2023/11/13 04:52:49;;;;;;;9.13;4.20;;;3.00;1.00;;;;;;5078550;28;20255;-83
2023/11/13 04:55:16;;;;;;;5.80;3.60;;;3.10;1.00;;;;;;5081210;28;20267;-84
2023/11/13 04:57:43;;;;;;;11.40;3.90;;;3.20;99.90;;;;;;5080139;28;20222;-82
2023/11/13 05:00:13;;;;;;;11.90;5.70;;;3.30;99.90;;;;;;5080195;28;20221;-84
2023/11/13 05:02:41;;;;;;;7.67;4.20;;;3.50;99.90;;;;;;5080056;28;20216;-84
2023/11/13 05:05:09;;;;;;;8.57;4.30;;;3.50;25.90;;;;;;5080444;28;20202;-81
2023/11/13 05:07:36;;;;;;;9.40;4.20;;;3.30;1.00;;;;;;5080392;28;20585;-81
2023/11/13 05:10:03;;;;;;;8.53;4.87;;;3.40;1.00;;;;;;5079850;28;20206;-84
2023/11/13 05:12:30;;;;;;;7.23;3.90;;;3.30;1.00;;;;;;5078840;28;20213;-81
2023/11/13 05:14:57;;;;;;;9.50;4.50;;;3.40;1.00;;;;;;5079294;28;20289;-84
2023/11/13 05:17:25;;;;;;;10.30;4.27;;;3.40;1.00;;;;;;5079463;28;20222;-81
2023/11/13 05:19:52;;;;;;;7.67;4.13;;;3.40;1.00;;;;;;5079306;28;20312;-81
2023/11/13 05:22:19;;;;;;;8.30;4.10;;;3.40;1.00;;;;;;5079430;28;20209;-81
2023/11/13 05:24:46;;;;;;;7.57;4.17;;;3.40;1.00;;;;;;5078924;28;20289;-82
2023/11/13 05:27:13;;;;;;;10.70;4.30;;;3.30;1.00;;;;;;5079118;28;20229;-81
2023/11/13 05:29:40;;;;;;;8.20;4.43;;;3.40;1.00;;;;;;5079398;28;20202;-82
2023/11/13 05:32:08;;;;;;;9.13;4.83;;;3.40;1.00;;;;;;5078821;28;20682;-80
2023/11/13 05:34:36;;;;;;;9.20;5.10;;;3.40;99.90;;;;;;5077755;28;20658;-82
2023/11/13 05:37:03;;;;;;;9.07;4.60;;;3.40;1.00;;;;;;5078320;28;20245;-83
2023/11/13 05:39:30;;;;;;;8.80;4.57;;;3.40;15.70;;;;;;5078292;28;20220;-84
2023/11/13 05:41:57;;;;;;;8.73;4.53;;;3.40;99.90;;;;;;5078532;28;20204;-84
2023/11/13 05:44:23;;;;;;;8.07;4.63;;;3.40;99.90;;;;;;5078263;28;20216;-84
2023/11/13 05:46:50;;;;;;;7.60;4.57;;;3.40;1.00;;;;;;5078379;28;20218;-83
2023/11/13 05:49:17;;;;;;;9.23;4.70;;;3.40;1.00;;;;;;5078385;28;20228;-84
2023/11/13 05:51:46;;;;;;;8.73;5.47;;;3.50;1.00;;;;;;5074120;28;20232;-81
2023/11/13 05:54:14;;;;;;;11.33;5.83;;;3.50;1.00;;;;;;5075725;28;20206;-83
2023/11/13 05:56:40;;;;;;;7.77;4.73;;;3.60;1.00;;;;;;5075195;28;20316;-83
2023/11/13 05:59:09;;;;;;;11.10;5.50;;;3.30;99.90;;;;;;5074800;28;20224;-82
2023/11/13 06:01:35;;;;;;;11.20;4.83;;;3.30;99.90;;;;;;5075695;28;20210;-83
2023/11/13 06:04:03;;;;;;;7.97;4.43;;;3.10;68.40;;;;;;5076012;28;20204;-82
2023/11/13 06:06:30;;;;;;;8.10;4.10;;;3.10;99.90;;;;;;5076451;28;20658;-81
2023/11/13 06:08:58;;;;;;;7.97;4.40;;;3.10;99.90;;;;;;5078579;28;20209;-82
2023/11/13 06:11:25;;;;;;;7.90;4.83;;;3.20;1.00;;;;;;5024628;28;1565628;-82
2023/11/13 06:13:52;;;;;;;8.40;4.90;;;3.10;1.00;;;;;;5080502;28;20206;-82
2023/11/13 06:16:20;;;;;;;11.40;5.27;;;3.20;1.00;;;;;;5079315;28;20222;-82
2023/11/13 06:18:47;;;;;;;9.50;4.73;;;3.20;1.00;;;;;;5079342;28;20206;-82
2023/11/13 06:21:14;;;;;;;10.43;5.53;;;3.30;1.00;;;;;;5080022;28;20202;-84
2023/11/13 06:23:43;;;;;;;8.73;4.67;;;3.50;1.00;;;;;;5080015;28;20285;-82
2023/11/13 06:26:12;;;;;;;11.13;5.73;;;3.60;1.00;;;;;;5078288;28;20594;-83
2023/11/13 06:28:40;;;;;;;12.83;6.03;;;3.50;1.00;;;;;;5080947;28;20202;-80
2023/11/13 06:31:07;;;;;;;9.50;5.40;;;3.70;1.00;;;;;;5079863;28;20210;-84
2023/11/13 06:33:34;;;;;;;14.57;5.50;;;3.80;99.90;;;;;;5077360;28;20685;-82
2023/11/13 06:36:02;;;;;;;12.60;5.63;;;3.90;99.90;;;;;;5078589;28;20222;-82
2023/11/13 06:38:29;;;;;;;10.10;5.57;;;3.70;1.00;;;;;;5078598;28;20558;-82
2023/11/13 06:40:56;;;;;;;9.20;5.70;;;3.80;99.90;;;;;;5079590;28;20228;-84
2023/11/13 06:43:25;;;;;;;11.80;6.50;;;3.80;1.00;;;;;;5078225;28;20206;-81
2023/11/13 06:45:52;;;;;;;9.73;6.30;;;3.60;1.00;;;;;;5078701;28;20222;-84
2023/11/13 06:48:19;;;;;;;14.17;7.00;;;3.60;93.50;;;;;;5078900;28;20627;-83
2023/11/13 06:50:46;;;;;;;14.83;7.23;;;3.90;1.00;;;;;;5078091;28;20575;-81
2023/11/13 06:53:13;;;;;;;13.13;6.40;;;3.80;45.80;;;;;;5078006;28;20220;-82
2023/11/13 06:55:40;;;;;;;13.33;5.57;;;3.70;1.00;;;;;;5078532;28;20221;-81
2023/11/13 06:58:08;;;;;;;8.60;6.13;;;3.70;1.00;;;;;;5078203;28;20206;-81
2023/11/13 07:00:36;;;;;;;11.63;5.47;;;3.80;99.90;;;;;;5075841;28;20218;-82
2023/11/13 07:03:04;;;;;;;13.43;7.03;;;3.80;99.90;;;;;;5077556;28;20293;-83
2023/11/13 07:05:31;;;;;;;15.30;8.30;;;4.10;99.90;;;;;;5078288;28;20684;-84
2023/11/13 07:07:59;;;;;;;14.27;7.63;;;4.30;1.00;;;;;;5078398;28;20213;-83
2023/11/13 07:10:26;;;;;;;17.67;8.43;;;4.50;1.00;;;;;;5077601;28;20574;-84
2023/11/13 07:12:53;;;;;;;14.67;7.87;;;4.60;99.90;;;;;;5079386;28;20592;-83
2023/11/13 07:15:20;;;;;;;16.07;7.50;;;4.60;1.00;;;;;;5078111;28;20198;-84
2023/11/13 07:17:48;;;;;;;16.83;8.10;;;4.60;1.00;;;;;;5078666;28;20573;-81
2023/11/13 07:20:18;;;;;;;17.23;8.17;;;4.60;99.90;;;;;;5077199;28;20218;-84
2023/11/13 07:22:45;;;;;;;15.03;7.90;;;4.60;99.90;;;;;;5076455;28;20692;-82
2023/11/13 07:25:11;;;;;;;17.70;8.90;;;4.60;99.90;;;;;;5075172;28;20194;-84
2023/11/13 07:27:38;;;;;;;12.77;7.10;;;4.60;99.90;;;;;;5075119;28;20712;-83
2023/11/13 07:30:07;;;;;;;14.63;8.00;;;4.60;99.90;;;;;;5074993;28;20695;-81
2023/11/13 07:32:33;;;;;;;16.80;9.57;;;4.70;95.90;;;;;;5073710;28;20202;-81
2023/11/13 07:35:03;;;;;;;21.73;13.73;;;4.70;63.90;;;;;;5074448;28;20202;-82
2023/11/13 07:37:31;;;;;;;25.33;15.73;;;4.60;1.00;;;;;;5076705;28;20244;-81
2023/11/13 07:39:59;;;;;;;26.70;16.17;;;4.70;60.00;;;;;;5074388;28;20680;-81
2023/11/13 07:42:26;;;;;;;24.13;15.20;;;4.70;1.00;;;;;;5074199;28;20229;-81
2023/11/13 07:44:55;;;;;;;21.67;13.43;;;4.80;85.70;;;;;;5074513;28;20212;-84
2023/11/13 07:47:26;;;;;;;25.00;12.83;;;4.80;1.00;;;;;;5073586;28;20222;-82
2023/11/13 07:49:56;;;;;;;20.47;12.63;;;4.90;1.00;;;;;;5074931;28;20198;-83
2023/11/13 07:52:26;;;;;;;19.03;11.97;;;5.00;1.00;;;;;;5075368;28;20190;-83
2023/11/13 07:54:54;;;;;;;23.93;12.83;;;5.20;1.00;;;;;;5075153;28;20622;-84
2023/11/13 07:57:21;;;;;;;19.57;11.57;;;5.10;1.00;;;;;;5074888;28;20225;-82
2023/11/13 07:59:48;;;;;;;20.37;10.70;;;5.20;1.00;;;;;;5074899;28;20226;-83
2023/11/13 08:02:19;;;;;;;18.77;10.33;;;5.20;1.00;;;;;;5074922;28;20658;-83
2023/11/13 08:04:46;;;;;;;22.43;11.53;;;5.30;1.00;;;;;;5077492;28;20602;-84
2023/11/13 08:07:13;;;;;;;18.90;9.90;;;5.50;99.90;;;;;;5077655;28;20228;-82
2023/11/13 08:09:41;;;;;;;21.03;10.13;;;5.40;99.90;;;;;;5077614;28;20207;-82
2023/11/13 08:12:09;;;;;;;19.07;10.63;;;5.50;99.90;;;;;;5077654;28;20216;-84
2023/11/13 08:14:36;;;;;;;21.80;11.73;;;5.60;99.90;;;;;;5076958;28;20225;-84
2023/11/13 08:17:03;;;;;;;21.30;10.80;;;5.60;99.90;;;;;;5075718;28;20226;-82
2023/11/13 08:19:30;;;;;;;19.87;10.50;;;5.90;99.90;;;;;;5075765;28;20224;-83
2023/11/13 08:21:57;;;;;;;20.50;9.87;;;5.80;1.00;;;;;;5076009;28;20202;-82
2023/11/13 08:24:24;;;;;;;19.80;10.70;;;5.80;1.00;;;;;;5076447;28;20673;-82
2023/11/13 08:26:53;;;;;;;20.87;9.80;;;5.90;1.00;;;;;;5076717;28;20228;-81
2023/11/13 08:29:20;;;;;;;17.73;9.37;;;6.00;1.00;;;;;;5077260;28;20680;-81
2023/11/13 08:31:47;;;;;;;16.80;8.73;;;6.00;1.00;;;;;;5076346;28;20260;-80
2023/11/13 08:34:15;;;;;;;17.33;9.73;;;6.10;1.00;;;;;;5075149;28;20249;-83
2023/11/13 08:36:44;;;;;;;14.20;8.17;;;6.20;1.00;;;;;;5075410;28;20222;-83
2023/11/13 08:39:16;;;;;;;16.40;9.30;;;6.20;1.00;;;;;;5075219;28;20213;-81
2023/11/13 08:41:44;;;;;;;15.23;8.33;;;6.30;99.90;;;;;;5076667;28;20589;-82
2023/11/13 08:44:12;;;;;;;17.40;8.77;;;6.40;99.90;;;;;;5076318;28;20549;-81
2023/11/13 08:46:40;;;;;;;14.50;7.57;;;6.40;99.90;;;;;;5076094;28;20271;-84
2023/11/13 08:49:07;;;;;;;12.57;6.83;;;6.50;99.90;;;;;;5077220;28;20202;-83
2023/11/13 08:51:34;;;;;;;12.67;7.33;;;6.70;93.10;;;;;;5078061;28;20312;-81
2023/11/13 08:54:01;;;;;;;16.20;7.60;;;6.90;1.00;;;;;;5078052;28;20202;-81
2023/11/13 08:56:28;;;;;;;13.47;7.30;;;7.30;1.00;;;;;;5077266;28;20222;-83
2023/11/13 08:58:56;;;;;;;13.67;8.00;;;7.40;1.00;;;;;;5077311;28;20202;-81
2023/11/13 09:01:25;;;;;;;11.20;6.70;;;7.40;99.90;;;;;;5077773;28;20462;-82
2023/11/13 09:03:54;;;;;;;13.43;7.47;;;7.40;99.90;;;;;;5077551;28;20629;-84
2023/11/13 09:06:22;;;;;;;11.37;6.60;;;7.40;99.90;;;;;;5076840;28;20230;-83
2023/11/13 09:08:53;;;;;;;14.77;7.80;;;7.30;99.90;;;;;;5077255;28;20251;-84
2023/11/13 09:11:21;;;;;;;12.90;7.27;;;7.40;99.90;;;;;;5076766;28;20237;-82
2023/11/13 09:13:48;;;;;;;13.57;7.50;;;7.20;99.90;;;;;;5076684;28;20228;-82
2023/11/13 09:16:15;;;;;;;12.70;7.20;;;7.00;99.90;;;;;;5075789;28;20228;-82
2023/11/13 09:18:48;;;;;;;13.57;7.47;;;7.00;23.20;;;;;;5076012;28;20210;-80
2023/11/13 09:21:17;;;;;;;12.67;6.63;;;7.10;99.90;;;;;;5075238;28;20272;-80
2023/11/13 09:23:44;;;;;;;15.90;7.40;;;7.10;99.90;;;;;;5075429;28;20210;-81
2023/11/13 09:26:12;;;;;;;11.57;6.20;;;7.20;99.90;;;;;;5075921;28;20218;-85
2023/11/13 09:28:39;;;;;;;12.70;7.10;;;7.20;1.00;;;;;;5059863;28;20195;-85
2023/11/13 09:31:09;;;;;;;12.70;6.60;;;7.20;20.90;;;;;;5056635;28;20575;-82
2023/11/13 09:33:37;;;;;;;12.67;6.83;;;7.40;46.10;;;;;;5059350;28;20199;-83
2023/11/13 09:36:06;;;;;;;12.47;7.07;;;7.30;1.00;;;;;;5059373;28;20652;-83
2023/11/13 09:38:32;;;;;;;9.50;6.63;;;7.40;1.00;;;;;;5058464;28;20234;-81
2023/11/13 09:41:03;;;;;;;9.50;6.33;;;7.40;1.00;;;;;;5059466;28;20223;-84
2023/11/13 09:43:34;;;;;;;13.30;7.00;;;7.30;1.00;;;;;;5060842;28;20183;-82
2023/11/13 09:46:06;;;;;;;12.53;7.17;;;7.20;1.00;;;;;;5060420;28;20227;-84
2023/11/13 09:48:36;;;;;;;11.93;7.13;;;7.10;1.00;;;;;;5060814;28;20190;-82
2023/11/13 09:51:08;;;;;;;11.33;6.73;;;7.20;99.90;;;;;;5060333;28;20203;-83
2023/11/13 09:53:36;;;;;;;10.87;7.13;;;7.20;99.90;;;;;;5060603;28;20199;-85
2023/11/13 09:56:03;;;;;;;13.90;5.97;;;7.10;99.90;;;;;;5060933;28;20279;-82
2023/11/13 09:58:32;;;;;;;14.37;7.17;;;7.00;1.00;;;;;;5059465;28;20211;-83
2023/11/13 10:01:00;;;;;;;11.87;6.30;;;6.90;1.00;;;;;;5058643;28;20713;-83
2023/11/13 10:03:29;;;;;;;11.80;6.97;;;6.90;1.00;;;;;;5058480;28;20570;-85
2023/11/13 10:05:56;;;;;;;10.20;6.70;;;6.90;1.00;;;;;;5057982;28;20277;-85
2023/11/13 10:08:24;;;;;;;9.67;6.27;;;6.90;99.90;;;;;;5058742;28;20190;-86
2023/11/13 10:10:51;;;;;;;13.27;7.00;;;6.90;99.90;;;;;;5060092;28;20214;-86
2023/11/13 10:13:23;;;;;;;12.00;6.87;;;6.90;1.00;;;;;;5059371;28;20207;-81
2023/11/13 10:15:50;;;;;;;12.23;7.13;;;6.90;1.00;;;;;;5058833;28;20245;-79
2023/11/13 10:18:26;;;;;;;10.97;6.57;;;6.90;99.90;;;;;;5059438;28;20199;-86
2023/11/13 10:20:52;;;;;;;12.83;7.33;;;6.90;99.90;;;;;;5057969;28;20574;-85
2023/11/13 10:23:20;;;;;;;10.73;6.80;;;6.90;99.90;;;;;;5059108;28;20203;-86
2023/11/13 10:25:52;;;;;;;13.30;6.63;;;6.90;1.00;;;;;;5058929;28;20666;-84
2023/11/13 10:28:21;;;;;;;11.13;6.77;;;7.00;99.90;;;;;;5058994;28;20202;-85
2023/11/13 10:30:56;;;;;;;14.40;7.10;;;7.00;1.00;;;;;;5058222;28;20221;-85
2023/11/13 10:33:23;;;;;;;9.60;6.87;;;6.90;1.00;;;;;;5058566;28;20187;-83
2023/11/13 10:35:51;;;;;;;11.60;6.80;;;6.90;1.00;;;;;;5059414;28;20578;-81
2023/11/13 10:38:17;;;;;;;9.20;6.23;;;7.10;99.90;;;;;;5059478;28;20222;-85
2023/11/13 10:40:55;;;;;;;11.83;6.57;;;7.10;1.00;;;;;;5058759;28;20683;-83
2023/11/13 10:43:29;;;;;;;10.97;6.07;;;7.00;19.50;;;;;;5058801;28;20205;-83
2023/11/13 10:45:56;;;;;;;9.30;6.20;;;7.00;93.20;;;;;;5058210;28;20218;-82
2023/11/13 10:48:34;;;;;;;10.70;5.70;;;7.00;4.00;;;;;;5059154;28;20207;-83
2023/11/13 10:51:05;;;;;;;9.83;6.20;;;7.10;1.00;;;;;;5059268;28;20198;-85
2023/11/13 10:53:32;;;;;;;10.47;6.13;;;7.10;46.90;;;;;;5060265;28;20225;-85
2023/11/13 10:56:01;;;;;;;13.33;6.70;;;7.10;1.00;;;;;;5059270;28;20566;-81
2023/11/13 10:58:28;;;;;;;10.67;6.57;;;7.20;1.00;;;;;;5061896;28;20213;-82
2023/11/13 11:00:58;;;;;;;10.70;6.07;;;7.20;1.00;;;;;;5078328;28;20626;-84
2023/11/13 11:03:32;;;;;;;11.70;6.07;;;7.20;99.90;;;;;;5078111;28;20224;-85
2023/11/13 11:06:06;;;;;;;8.73;5.90;;;7.20;1.00;;;;;;5076385;28;20279;-84
2023/11/13 11:08:33;;;;;;;11.90;6.60;;;7.30;1.00;;;;;;5076875;28;20271;-84
2023/11/13 11:11:04;;;;;;;10.30;5.53;;;7.20;1.00;;;;;;5075334;28;20210;-82
2023/11/13 11:13:32;;;;;;;12.50;5.97;;;7.10;1.00;;;;;;5076310;28;20214;-84
2023/11/13 11:16:24;;;;;;;9.27;5.87;;;7.20;1.00;;;;;;5075983;28;20214;-86
2023/11/13 11:18:59;;;;;;;9.30;5.50;;;7.10;99.90;;;;;;5077386;28;20202;-84
2023/11/13 11:21:40;;;;;;;10.63;5.87;;;7.10;99.90;;;;;;5077009;28;20309;-83
2023/11/13 11:24:13;;;;;;;10.07;5.80;;;7.10;1.00;;;;;;5077337;28;20701;-84
2023/11/13 11:27:00;;;;;;;9.57;5.27;;;7.10;1.00;;;;;;5077713;28;20309;-84
2023/11/13 11:29:37;;;;;;;10.53;5.10;;;7.20;10.90;;;;;;5076795;28;20212;-84
2023/11/13 11:32:20;;;;;;;8.63;5.00;;;7.20;99.90;;;;;;5076513;28;20267;-85
2023/11/13 11:34:52;;;;;;;8.47;5.17;;;7.20;1.00;;;;;;5076353;28;20279;-86
2023/11/13 11:37:19;;;;;;;8.40;5.47;;;7.30;99.90;;;;;;5076168;28;20229;-86
2023/11/13 11:39:47;;;;;;;8.83;5.43;;;7.30;99.90;;;;;;5075755;28;20293;-84
2023/11/13 11:42:20;;;;;;;7.37;5.00;;;7.20;1.00;;;;;;5066294;28;20230;-85
2023/11/13 11:44:58;;;;;;;8.93;5.23;;;7.20;1.00;;;;;;5056042;28;20580;-82
2023/11/13 11:47:27;;;;;;;9.03;5.20;;;7.30;99.90;;;;;;5056139;28;20313;-84
2023/11/13 11:49:55;;;;;;;8.47;5.13;;;7.30;1.00;;;;;;5060090;28;20586;-84
2023/11/13 11:52:40;;;;;;;8.27;5.23;;;7.20;1.00;;;;;;5061752;28;20220;-81
2023/11/13 11:55:12;;;;;;;8.97;5.07;;;7.30;1.00;;;;;;5076814;28;20191;-82
2023/11/13 11:57:44;;;;;;;7.17;4.63;;;7.20;1.00;;;;;;5078167;28;20290;-83
2023/11/13 12:00:15;;;;;;;7.60;4.73;;;7.10;1.00;;;;;;5077920;28;20219;-84
2023/11/13 12:02:43;;;;;;;6.83;4.70;;;7.20;42.30;;;;;;5077382;28;20255;-85
2023/11/13 12:05:10;;;;;;;6.13;4.10;;;7.10;99.90;;;;;;5077958;28;20670;-82
2023/11/13 12:07:37;;;;;;;6.10;4.00;;;7.20;72.30;;;;;;5076798;28;20226;-83
2023/11/13 12:10:08;;;;;;;5.80;4.03;;;7.20;12.20;;;;;;5076517;28;20224;-88
2023/11/13 12:12:35;;;;;;;5.03;4.10;;;7.20;1.00;;;;;;5076542;28;20250;-82
2023/11/13 12:15:06;;;;;;;4.70;3.70;;;7.30;1.00;;;;;;5076408;28;20718;-87
2023/11/13 12:17:34;;;;;;;5.43;3.60;;;7.30;1.00;;;;;;5076816;28;20697;-85
2023/11/13 12:20:01;;;;;;;5.67;3.60;;;7.40;1.00;;;;;;5076545;28;20200;-84
2023/11/13 12:22:28;;;;;;;4.67;3.80;;;7.40;1.00;;;;;;5076844;28;20230;-86
2023/11/13 12:24:55;;;;;;;5.27;3.77;;;7.60;99.90;;;;;;5076634;28;20213;-84
2023/11/13 12:27:25;;;;;;;7.53;4.23;;;7.50;99.90;;;;;;5077261;28;20230;-83
2023/11/13 12:30:00;;;;;;;5.53;3.93;;;7.50;99.90;;;;;;5076981;28;20191;-84
2023/11/13 12:32:29;;;;;;;5.37;3.57;;;7.50;99.90;;;;;;5076896;28;20232;-85
2023/11/13 12:34:56;;;;;;;5.37;3.17;;;7.60;99.90;;;;;;5076542;28;20202;-85
2023/11/13 12:37:24;;;;;;;3.07;2.67;;;7.50;99.90;;;;;;5076974;28;20218;-84
2023/11/13 12:39:50;;;;;;;3.93;3.27;;;7.60;99.90;;;;;;5077626;28;20217;-84
2023/11/13 12:42:19;;;;;;;4.07;2.80;;;7.60;99.90;;;;;;5076559;28;20275;-84
2023/11/13 12:44:47;;;;;;;6.00;3.37;;;7.60;99.90;;;;;;5076253;28;20203;-85
2023/11/13 12:47:13;;;;;;;3.90;3.00;;;7.60;99.90;;;;;;5076861;28;20226;-84
2023/11/13 12:49:42;;;;;;;3.90;3.27;;;7.60;99.90;;;;;;5076858;28;20265;-83
2023/11/13 12:52:10;;;;;;;6.07;3.77;;;7.80;99.90;;;;;;5075769;28;20210;-83
2023/11/13 12:54:37;;;;;;;5.63;3.73;;;7.70;99.90;;;;;;5055731;28;20237;-83
2023/11/13 12:57:06;;;;;;;4.67;3.00;;;7.70;99.90;;;;;;5061852;28;20229;-81
2023/11/13 12:59:33;;;;;;;5.00;3.03;;;7.70;99.90;;;;;;5065580;28;20210;-83
2023/11/13 13:02:01;;;;;;;4.43;3.10;;;7.70;99.90;;;;;;5074945;28;20249;-84
2023/11/13 13:04:28;;;;;;;5.50;3.10;;;7.70;99.90;;;;;;5074541;28;20214;-85